Suphan Buri, Thailand
Current Conditions -  °F | °C
As of 1:30 PM on Wednesday 28 Jan 2015 (Local Time) from VTBD Reporting Station
Broken Clouds Broken Clouds  
Wind Chill: 90°   Ceiling: 30000
Heat Index: 96°   Visibility: 4mi
Dew Point: 72°   Wind: 2mph
Humidity: 55%   Direction: 300°WNW
Pressure: 29.83"   Gusts: NA
Location:  14.47°N, 100.13°E
Report Text: VTBD 280630Z 30002KT 7000 FEW020 BKN300 32/22 Q1010 NOSIG
Loading
Personal Weather Stations






























Interactive Weather Map New forecast layout! Learn more

10-Day Weather Forecast

Advertisements
Track Severe Weather on mobile